createdAt,value
2022-12-28T00:01:36.104Z,1.43
2022-12-28T00:04:59.647Z,1.37
2022-12-28T00:08:23.143Z,1.53
2022-12-28T00:11:46.709Z,1.53
2022-12-28T00:15:12.408Z,1.70
2022-12-28T00:18:36.348Z,1.43
2022-12-28T00:21:59.821Z,1.70
2022-12-28T00:25:23.315Z,1.90
2022-12-28T00:28:47.601Z,1.70
2022-12-28T00:32:12.443Z,2.07
2022-12-28T00:35:35.977Z,1.80
2022-12-28T00:39:00.497Z,1.10
2022-12-28T00:42:23.930Z,1.30
2022-12-28T00:45:48.533Z,1.30
2022-12-28T00:49:13.519Z,0.97
2022-12-28T00:52:36.978Z,1.33
2022-12-28T00:56:07.976Z,1.00
2022-12-28T00:59:31.453Z,1.20
2022-12-28T01:02:56.773Z,1.00
2022-12-28T01:06:24.453Z,1.47
2022-12-28T01:09:48.759Z,1.80
2022-12-28T01:13:14.566Z,1.53
2022-12-28T01:16:38.204Z,1.43
2022-12-28T01:20:01.759Z,1.27
2022-12-28T01:23:27.003Z,2.27
2022-12-28T01:26:50.571Z,1.70
2022-12-28T01:30:15.606Z,1.27
2022-12-28T01:33:39.409Z,1.13
2022-12-28T01:37:03.110Z,1.30
2022-12-28T01:40:28.050Z,1.10
2022-12-28T01:44:43.709Z,1.23
2022-12-28T01:48:20.436Z,1.30
2022-12-28T01:51:55.280Z,1.13
2022-12-28T01:55:25.620Z,1.30
2022-12-28T01:58:51.297Z,1.60
2022-12-28T02:02:17.100Z,1.40
2022-12-28T02:05:45.366Z,1.40
2022-12-28T02:09:17.842Z,1.00
2022-12-28T02:12:42.360Z,1.30
2022-12-28T02:16:08.453Z,1.20
2022-12-28T02:19:44.652Z,1.00
2022-12-28T02:23:35.378Z,1.17
2022-12-28T02:27:04.059Z,1.30
2022-12-28T02:30:31.345Z,1.00
2022-12-28T02:34:06.803Z,1.10
2022-12-28T02:37:40.654Z,0.90
2022-12-28T02:41:10.173Z,1.07
2022-12-28T02:44:54.665Z,0.90
2022-12-28T02:48:37.111Z,1.00
2022-12-28T02:52:12.658Z,1.37
2022-12-28T02:56:10.048Z,0.83
2022-12-28T03:00:01.687Z,0.90
2022-12-28T03:03:40.445Z,0.80
2022-12-28T03:07:32.183Z,0.70
2022-12-28T03:11:06.114Z,1.03
2022-12-28T03:14:44.297Z,0.70
2022-12-28T03:18:32.142Z,0.70
2022-12-28T03:22:16.257Z,0.87
2022-12-28T03:26:03.424Z,0.80
2022-12-28T03:29:56.936Z,0.80
2022-12-28T03:33:20.932Z,0.60
2022-12-28T03:36:59.717Z,0.90
2022-12-28T03:40:35.334Z,0.90
2022-12-28T03:44:10.296Z,0.73
2022-12-28T03:47:38.688Z,1.10
2022-12-28T03:51:02.301Z,1.40
2022-12-28T03:54:29.184Z,1.20
2022-12-28T03:57:53.177Z,1.80
2022-12-28T04:01:21.414Z,1.10
2022-12-28T04:04:45.585Z,1.40
2022-12-28T04:08:10.033Z,0.90
2022-12-28T04:11:35.207Z,0.80
2022-12-28T04:14:58.915Z,0.70
2022-12-28T04:18:22.529Z,1.00
2022-12-28T04:21:46.028Z,1.10
2022-12-28T04:25:10.526Z,1.10
2022-12-28T04:28:36.846Z,0.90
2022-12-28T04:32:22.609Z,0.70
2022-12-28T04:35:46.558Z,0.80
2022-12-28T04:39:10.733Z,0.80
2022-12-28T04:42:34.312Z,0.80
2022-12-28T04:46:00.373Z,0.80
2022-12-28T04:49:24.071Z,0.80
2022-12-28T04:52:47.484Z,0.80
2022-12-28T04:56:13.721Z,1.10
2022-12-28T04:59:37.172Z,0.80
2022-12-28T05:03:02.024Z,0.77
2022-12-28T05:06:27.620Z,0.70
2022-12-28T05:09:51.317Z,0.90
2022-12-28T05:13:14.769Z,0.70
2022-12-28T05:16:38.847Z,0.80
2022-12-28T05:20:04.523Z,0.73
2022-12-28T05:23:29.937Z,0.80
2022-12-28T05:26:53.468Z,0.73
2022-12-28T05:30:17.061Z,0.90
2022-12-28T05:33:41.248Z,0.80
2022-12-28T05:37:06.250Z,0.77
2022-12-28T05:40:29.766Z,1.30
2022-12-28T05:43:53.721Z,0.70
2022-12-28T05:47:17.269Z,0.73
2022-12-28T05:50:41.149Z,0.77
2022-12-28T05:54:06.219Z,0.93
2022-12-28T05:57:29.880Z,0.90
2022-12-28T06:00:53.371Z,0.80
2022-12-28T06:04:19.577Z,0.70
2022-12-28T06:07:43.067Z,0.80
2022-12-28T06:11:11.865Z,0.80
2022-12-28T06:14:35.474Z,0.70
2022-12-28T06:17:59.000Z,0.90
2022-12-28T06:21:25.322Z,0.70
2022-12-28T06:24:48.736Z,0.87
2022-12-28T06:28:13.660Z,0.77
2022-12-28T06:31:40.565Z,0.80
2022-12-28T06:35:04.159Z,0.80
2022-12-28T06:38:31.167Z,0.80
2022-12-28T06:41:54.661Z,0.80
2022-12-28T06:45:19.552Z,0.70
2022-12-28T06:48:43.747Z,0.90
2022-12-28T06:52:07.256Z,0.80
2022-12-28T06:55:30.873Z,0.70
2022-12-28T06:59:00.501Z,0.90
2022-12-28T07:02:28.044Z,0.70
2022-12-28T07:05:52.048Z,0.70
2022-12-28T07:09:17.676Z,0.93
2022-12-28T07:12:41.191Z,0.67
2022-12-28T07:16:06.886Z,0.70
2022-12-28T07:19:31.854Z,0.93
2022-12-28T07:22:55.759Z,0.60
2022-12-28T07:26:22.836Z,0.90
2022-12-28T07:29:46.326Z,0.83
2022-12-28T07:33:09.786Z,0.70
2022-12-28T07:36:35.014Z,0.90
2022-12-28T07:39:58.767Z,0.73
2022-12-28T07:43:22.255Z,0.90
2022-12-28T07:46:45.699Z,1.00
2022-12-28T07:50:10.104Z,0.80
2022-12-28T07:53:35.104Z,1.10
2022-12-28T07:56:58.866Z,0.90
2022-12-28T08:00:22.418Z,0.90
2022-12-28T08:03:47.150Z,0.93
2022-12-28T08:07:10.959Z,0.90
2022-12-28T08:10:35.973Z,0.90
2022-12-28T08:14:01.332Z,0.90
2022-12-28T08:17:24.766Z,0.97
2022-12-28T08:20:48.300Z,0.87
2022-12-28T08:24:16.567Z,0.97
2022-12-28T08:27:41.622Z,0.90
2022-12-28T08:31:11.580Z,0.83
2022-12-28T08:34:35.300Z,0.90
2022-12-28T08:37:58.856Z,0.80
2022-12-28T08:41:24.845Z,1.00
2022-12-28T08:44:49.738Z,0.93
2022-12-28T08:48:13.210Z,1.20
2022-12-28T08:51:41.442Z,0.80
2022-12-28T08:55:05.572Z,1.10
2022-12-28T08:58:29.120Z,0.90
2022-12-28T09:01:54.645Z,1.10
2022-12-28T09:05:18.294Z,0.90
2022-12-28T09:08:56.783Z,1.13
2022-12-28T09:12:26.477Z,1.20
2022-12-28T09:15:58.725Z,1.20
2022-12-28T09:19:23.843Z,0.90
2022-12-28T09:22:47.526Z,1.00
2022-12-28T09:26:14.061Z,1.10
2022-12-28T09:29:37.550Z,1.17
2022-12-28T09:33:14.934Z,1.20
2022-12-28T09:36:43.130Z,1.10
2022-12-28T09:40:10.235Z,1.20
2022-12-28T09:43:34.522Z,1.63
2022-12-28T09:47:04.292Z,1.00
2022-12-28T09:50:32.920Z,1.13
2022-12-28T09:53:58.242Z,1.30
2022-12-28T09:57:23.222Z,1.10
2022-12-28T10:00:51.911Z,1.07
2022-12-28T10:04:15.480Z,1.03
2022-12-28T10:07:39.336Z,1.30
2022-12-28T10:11:06.379Z,1.70
2022-12-28T10:14:34.369Z,1.30
2022-12-28T10:18:00.542Z,1.30
2022-12-28T10:21:32.712Z,1.30
2022-12-28T10:24:56.871Z,1.40
2022-12-28T10:28:27.260Z,1.20
2022-12-28T10:32:03.748Z,1.37
2022-12-28T10:35:30.501Z,1.40
2022-12-28T10:38:57.447Z,1.00
2022-12-28T10:42:26.942Z,1.10
2022-12-28T10:45:53.420Z,1.07
2022-12-28T10:49:17.671Z,1.27
2022-12-28T10:52:41.847Z,1.07
2022-12-28T10:56:20.659Z,1.10
2022-12-28T10:59:44.278Z,1.20
2022-12-28T11:03:19.736Z,0.90
2022-12-28T11:06:53.882Z,0.90
2022-12-28T11:10:26.541Z,0.87
2022-12-28T11:13:56.712Z,0.90
2022-12-28T11:17:24.127Z,0.93
2022-12-28T11:20:52.135Z,0.70
2022-12-28T11:24:18.495Z,0.93
2022-12-28T11:27:42.376Z,0.80
2022-12-28T11:31:09.102Z,0.90
2022-12-28T11:34:33.744Z,0.80
2022-12-28T11:38:00.929Z,0.80
2022-12-28T11:41:56.336Z,0.90
2022-12-28T11:45:53.702Z,0.80
2022-12-28T11:49:35.839Z,0.87
2022-12-28T11:53:01.852Z,0.70
2022-12-28T11:56:29.335Z,0.90
2022-12-28T11:59:52.851Z,0.70
2022-12-28T12:03:16.382Z,0.70
2022-12-28T12:07:22.741Z,0.80
2022-12-28T12:10:50.841Z,0.80
2022-12-28T12:14:16.555Z,0.83
2022-12-28T12:17:46.651Z,0.90
2022-12-28T12:21:15.841Z,1.00
2022-12-28T12:24:49.492Z,0.70
2022-12-28T12:28:34.279Z,0.60
2022-12-28T12:32:03.532Z,0.80
2022-12-28T12:35:30.549Z,0.70
2022-12-28T12:39:24.662Z,0.80
2022-12-28T12:43:15.449Z,0.77
2022-12-28T12:47:30.619Z,0.70
2022-12-28T12:51:15.861Z,0.83
2022-12-28T12:55:00.941Z,0.70
2022-12-28T12:58:31.091Z,0.87
2022-12-28T13:02:33.736Z,0.77
2022-12-28T13:06:00.025Z,0.80
2022-12-28T13:09:28.700Z,0.83
2022-12-28T13:12:55.899Z,0.70
2022-12-28T13:16:23.615Z,0.80
2022-12-28T13:19:49.386Z,0.90
2022-12-28T13:23:17.243Z,0.90
2022-12-28T13:26:43.743Z,0.80
2022-12-28T13:30:19.512Z,0.70
2022-12-28T13:33:43.145Z,0.70
2022-12-28T13:37:21.990Z,0.80
2022-12-28T13:40:54.084Z,0.87
2022-12-28T13:44:31.881Z,0.80
2022-12-28T13:47:57.988Z,0.80
2022-12-28T13:51:23.342Z,0.80
2022-12-28T13:54:55.528Z,0.77
2022-12-28T13:58:29.528Z,0.80
2022-12-28T14:01:54.361Z,0.97
2022-12-28T14:05:21.312Z,0.80
2022-12-28T14:08:46.581Z,1.07
2022-12-28T14:12:13.643Z,0.80
2022-12-28T14:15:41.354Z,0.90
2022-12-28T14:19:07.044Z,0.80
2022-12-28T14:22:33.963Z,0.70
2022-12-28T14:26:01.216Z,0.90
2022-12-28T14:29:32.429Z,0.90
2022-12-28T14:32:57.787Z,0.70
2022-12-28T14:36:24.111Z,0.87
2022-12-28T14:39:49.542Z,0.77
2022-12-28T14:43:24.230Z,1.00
2022-12-28T14:46:54.222Z,0.80
2022-12-28T14:50:24.179Z,0.70
2022-12-28T14:54:17.818Z,0.90
2022-12-28T14:57:46.033Z,0.90
2022-12-28T15:01:10.825Z,0.70
2022-12-28T15:04:41.827Z,1.00
2022-12-28T15:08:06.993Z,0.80
2022-12-28T15:11:31.166Z,0.90
2022-12-28T15:14:54.761Z,1.00
2022-12-28T15:18:18.266Z,1.00
2022-12-28T15:21:43.172Z,0.80
2022-12-28T15:25:08.264Z,0.90
2022-12-28T15:28:31.730Z,0.90
2022-12-28T15:31:55.475Z,0.90
2022-12-28T15:35:19.648Z,0.90
2022-12-28T15:38:44.938Z,0.87
2022-12-28T15:42:08.762Z,0.90
2022-12-28T15:45:32.834Z,0.83
2022-12-28T15:48:56.817Z,0.90
2022-12-28T15:52:20.292Z,1.00
2022-12-28T15:55:45.376Z,1.00
2022-12-28T15:59:14.711Z,0.90
2022-12-28T16:02:38.972Z,0.80
2022-12-28T16:06:03.883Z,1.00
2022-12-28T16:09:27.485Z,1.03
2022-12-28T16:12:52.889Z,1.10
2022-12-28T16:16:17.427Z,1.20
2022-12-28T16:19:41.569Z,0.90
2022-12-28T16:23:05.070Z,0.90
2022-12-28T16:26:29.783Z,1.17
2022-12-28T16:29:58.732Z,0.90
2022-12-28T16:33:23.716Z,0.80
2022-12-28T16:36:48.600Z,0.80
2022-12-28T16:40:12.925Z,1.00
2022-12-28T16:43:36.478Z,1.13
2022-12-28T16:47:03.453Z,0.97
2022-12-28T16:50:26.980Z,1.00
2022-12-28T16:53:50.544Z,0.90
2022-12-28T16:57:14.152Z,1.00
2022-12-28T17:00:37.731Z,1.00
2022-12-28T17:04:04.305Z,1.17
2022-12-28T17:07:29.927Z,1.20
2022-12-28T17:10:54.002Z,1.20
2022-12-28T17:14:35.712Z,1.30
2022-12-28T17:18:00.802Z,1.10
2022-12-28T17:21:26.873Z,1.23
2022-12-28T17:24:50.516Z,1.30
2022-12-28T17:28:14.132Z,1.47
2022-12-28T17:31:37.676Z,1.10
2022-12-28T17:35:01.174Z,1.40
2022-12-28T17:38:26.117Z,1.17
2022-12-28T17:41:50.143Z,1.50
2022-12-28T17:45:14.021Z,1.33
2022-12-28T17:48:37.784Z,1.30
2022-12-28T17:52:01.344Z,1.10
2022-12-28T17:55:26.334Z,1.50
2022-12-28T17:58:50.011Z,1.67
2022-12-28T18:02:13.970Z,1.30
2022-12-28T18:05:37.651Z,1.40
2022-12-28T18:09:01.115Z,1.33
2022-12-28T18:12:25.855Z,1.40
2022-12-28T18:15:50.060Z,1.47
2022-12-28T18:19:13.726Z,1.13
2022-12-28T18:22:37.106Z,1.30
2022-12-28T18:26:04.366Z,1.07
2022-12-28T18:29:29.148Z,1.27
2022-12-28T18:32:52.964Z,1.40
2022-12-28T18:36:18.511Z,1.50
2022-12-28T18:39:42.839Z,1.17
2022-12-28T18:43:06.982Z,1.50
2022-12-28T18:46:32.003Z,1.50
2022-12-28T18:49:55.864Z,1.47
2022-12-28T18:53:19.524Z,1.43
2022-12-28T18:56:43.104Z,1.70
2022-12-28T19:00:10.541Z,1.70
2022-12-28T19:03:36.500Z,1.57
2022-12-28T19:07:00.417Z,1.60
2022-12-28T19:10:24.036Z,1.60
2022-12-28T19:13:47.477Z,1.57
2022-12-28T19:17:10.954Z,1.80
2022-12-28T19:20:35.778Z,1.60
2022-12-28T19:24:03.222Z,1.67
2022-12-28T19:27:26.801Z,1.80
2022-12-28T19:30:51.960Z,1.60
2022-12-28T19:34:15.780Z,1.70
2022-12-28T19:37:40.614Z,2.03
2022-12-28T19:41:07.917Z,1.50
2022-12-28T19:44:31.592Z,1.60
2022-12-28T19:47:55.002Z,1.40
2022-12-28T19:51:18.433Z,1.50
2022-12-28T19:54:43.342Z,1.50
2022-12-28T19:58:06.852Z,1.70
2022-12-28T20:01:30.452Z,1.90
2022-12-28T20:04:54.510Z,1.90
2022-12-28T20:08:17.981Z,1.73
2022-12-28T20:11:44.741Z,1.60
2022-12-28T20:15:09.578Z,1.30
2022-12-28T20:18:33.050Z,1.77
2022-12-28T20:21:56.582Z,1.50
2022-12-28T20:25:20.057Z,2.03
2022-12-28T20:28:46.146Z,1.60
2022-12-28T20:32:09.657Z,1.60
2022-12-28T20:35:33.160Z,1.33
2022-12-28T20:38:57.397Z,1.30
2022-12-28T20:42:38.452Z,1.10
2022-12-28T20:46:04.060Z,1.20
2022-12-28T20:49:29.058Z,1.30
2022-12-28T20:52:54.400Z,1.20
2022-12-28T20:56:18.262Z,1.10
2022-12-28T20:59:41.822Z,1.30
2022-12-28T21:03:06.668Z,1.30
2022-12-28T21:06:30.195Z,0.90
2022-12-28T21:09:53.985Z,1.00
2022-12-28T21:13:17.440Z,1.17
2022-12-28T21:16:40.950Z,1.30
2022-12-28T21:20:06.710Z,1.30
2022-12-28T21:23:32.893Z,1.20
2022-12-28T21:26:56.393Z,1.17
2022-12-28T21:30:20.042Z,1.40
2022-12-28T21:33:43.533Z,1.20
2022-12-28T21:37:22.269Z,1.10
2022-12-28T21:40:45.721Z,1.20
2022-12-28T21:44:12.240Z,1.20
2022-12-28T21:47:37.284Z,1.10
2022-12-28T21:51:30.139Z,1.27
2022-12-28T21:54:54.960Z,1.20
2022-12-28T21:58:18.744Z,1.30
2022-12-28T22:02:01.189Z,1.43
2022-12-28T22:05:47.951Z,1.23
2022-12-28T22:09:29.408Z,1.13
2022-12-28T22:12:54.331Z,1.27
2022-12-28T22:16:17.894Z,1.50
2022-12-28T22:19:41.415Z,1.10
2022-12-28T22:23:06.925Z,1.00
2022-12-28T22:26:30.417Z,1.20
2022-12-28T22:29:55.554Z,1.10
2022-12-28T22:33:19.831Z,1.20
2022-12-28T22:36:43.294Z,1.23
2022-12-28T22:40:08.187Z,1.10
2022-12-28T22:43:31.849Z,1.10
2022-12-28T22:46:59.817Z,1.30
2022-12-28T22:50:23.913Z,1.90
2022-12-28T22:53:49.839Z,1.30
2022-12-28T22:57:13.373Z,1.13
2022-12-28T23:00:36.795Z,1.40
2022-12-28T23:04:01.910Z,1.13
2022-12-28T23:07:25.536Z,1.10
2022-12-28T23:10:57.765Z,0.83
2022-12-28T23:14:43.141Z,1.10
2022-12-28T23:18:20.956Z,1.00
2022-12-28T23:22:03.573Z,0.80
2022-12-28T23:25:45.146Z,1.00
2022-12-28T23:29:08.611Z,1.13
2022-12-28T23:32:32.208Z,1.10
2022-12-28T23:35:55.664Z,1.10
2022-12-28T23:39:20.543Z,1.10
2022-12-28T23:42:45.742Z,0.93
2022-12-28T23:46:09.508Z,0.90
2022-12-28T23:49:33.137Z,1.10
2022-12-28T23:52:56.766Z,0.90
2022-12-28T23:56:21.839Z,1.00
2022-12-28T23:59:45.950Z,1.27
